sensor_id;sensor_type;location;lat;lon;timestamp;pressure;altitude;pressure_sealevel;temperature;humidity
62164;BME280;48149;51.132;7.178;2022-12-15T00:02:30;97610.94;;;1.40;78.67
62164;BME280;48149;51.132;7.178;2022-12-15T00:05:14;97600.75;;;1.68;80.41
62164;BME280;48149;51.132;7.178;2022-12-15T00:08:05;97605.63;;;1.78;82.56
62164;BME280;48149;51.132;7.178;2022-12-15T00:10:49;97611.16;;;1.96;80.47
62164;BME280;48149;51.132;7.178;2022-12-15T00:13:33;97612.44;;;1.49;83.76
62164;BME280;48149;51.132;7.178;2022-12-15T00:16:21;97611.91;;;1.90;83.15
62164;BME280;48149;51.132;7.178;2022-12-15T00:19:05;97610.31;;;1.89;82.14
62164;BME280;48149;51.132;7.178;2022-12-15T00:21:49;97607.09;;;2.01;83.40
62164;BME280;48149;51.132;7.178;2022-12-15T00:24:33;97607.31;;;2.06;79.86
62164;BME280;48149;51.132;7.178;2022-12-15T00:27:18;97613.94;;;1.73;81.97
62164;BME280;48149;51.132;7.178;2022-12-15T00:30:04;97616.03;;;2.05;83.07
62164;BME280;48149;51.132;7.178;2022-12-15T00:32:49;97617.28;;;2.09;82.20
62164;BME280;48149;51.132;7.178;2022-12-15T00:35:34;97620.06;;;2.08;83.30
62164;BME280;48149;51.132;7.178;2022-12-15T00:38:17;97624.50;;;2.63;84.07
62164;BME280;48149;51.132;7.178;2022-12-15T00:41:02;97623.41;;;2.08;82.41
62164;BME280;48149;51.132;7.178;2022-12-15T00:43:28;97626.50;;;2.19;83.40
62164;BME280;48149;51.132;7.178;2022-12-15T00:45:54;97643.22;;;2.01;84.71
62164;BME280;48149;51.132;7.178;2022-12-15T00:48:41;97641.69;;;1.92;86.62
62164;BME280;48149;51.132;7.178;2022-12-15T00:51:06;97633.34;;;1.90;90.92
62164;BME280;48149;51.132;7.178;2022-12-15T00:53:34;97634.59;;;1.44;92.85
62164;BME280;48149;51.132;7.178;2022-12-15T00:56:18;97644.50;;;2.12;90.32
62164;BME280;48149;51.132;7.178;2022-12-15T00:59:03;97640.06;;;2.27;88.01
62164;BME280;48149;51.132;7.178;2022-12-15T01:01:47;97642.56;;;1.78;90.13
62164;BME280;48149;51.132;7.178;2022-12-15T01:04:31;97643.69;;;1.90;89.95
62164;BME280;48149;51.132;7.178;2022-12-15T01:07:15;97639.84;;;2.01;88.86
62164;BME280;48149;51.132;7.178;2022-12-15T01:09:59;97654.72;;;1.84;90.01
62164;BME280;48149;51.132;7.178;2022-12-15T01:12:43;97649.50;;;2.35;89.13
62164;BME280;48149;51.132;7.178;2022-12-15T01:15:27;97657.56;;;1.89;90.84
62164;BME280;48149;51.132;7.178;2022-12-15T01:18:11;97650.09;;;2.15;90.02
62164;BME280;48149;51.132;7.178;2022-12-15T01:20:58;97656.00;;;2.31;91.64
62164;BME280;48149;51.132;7.178;2022-12-15T01:23:24;97671.72;;;2.78;87.55
62164;BME280;48149;51.132;7.178;2022-12-15T01:25:53;97664.84;;;2.22;89.63
62164;BME280;48149;51.132;7.178;2022-12-15T01:28:19;97672.47;;;1.73;91.38
62164;BME280;48149;51.132;7.178;2022-12-15T01:30:45;97676.19;;;2.42;89.04
62164;BME280;48149;51.132;7.178;2022-12-15T01:33:11;97677.75;;;2.43;87.82
62164;BME280;48149;51.132;7.178;2022-12-15T01:35:37;97673.19;;;2.02;91.08
62164;BME280;48149;51.132;7.178;2022-12-15T01:38:02;97673.81;;;1.54;93.74
62164;BME280;48149;51.132;7.178;2022-12-15T01:40:28;97670.56;;;1.81;95.10
62164;BME280;48149;51.132;7.178;2022-12-15T01:43:15;97675.16;;;2.36;89.93
62164;BME280;48149;51.132;7.178;2022-12-15T01:45:46;97684.75;;;2.42;88.30
62164;BME280;48149;51.132;7.178;2022-12-15T01:48:13;97691.59;;;1.64;92.28
62164;BME280;48149;51.132;7.178;2022-12-15T01:50:43;97692.28;;;1.72;93.13
62164;BME280;48149;51.132;7.178;2022-12-15T01:53:11;97692.81;;;1.82;91.24
62164;BME280;48149;51.132;7.178;2022-12-15T01:55:38;97698.34;;;1.50;91.97
62164;BME280;48149;51.132;7.178;2022-12-15T01:58:05;97707.03;;;1.05;94.37
62164;BME280;48149;51.132;7.178;2022-12-15T02:00:31;97711.59;;;0.80;97.78
62164;BME280;48149;51.132;7.178;2022-12-15T02:02:58;97721.81;;;0.88;95.82
62164;BME280;48149;51.132;7.178;2022-12-15T02:05:26;97713.34;;;1.17;95.47
62164;BME280;48149;51.132;7.178;2022-12-15T02:07:52;97703.06;;;0.57;94.82
62164;BME280;48149;51.132;7.178;2022-12-15T02:10:17;97706.91;;;0.61;96.60
62164;BME280;48149;51.132;7.178;2022-12-15T02:15:30;97701.66;;;0.54;94.60
62164;BME280;48149;51.132;7.178;2022-12-15T02:20:43;97705.22;;;0.53;93.04
62164;BME280;48149;51.132;7.178;2022-12-15T02:31:05;97700.19;;;0.07;87.38
62164;BME280;48149;51.132;7.178;2022-12-15T02:33:53;97709.78;;;-0.57;90.88
62164;BME280;48149;51.132;7.178;2022-12-15T02:36:26;97708.66;;;-0.63;93.00
62164;BME280;48149;51.132;7.178;2022-12-15T02:38:53;97718.66;;;0.10;90.16
62164;BME280;48149;51.132;7.178;2022-12-15T02:44:19;97716.97;;;-0.44;89.75
62164;BME280;48149;51.132;7.178;2022-12-15T02:46:51;97723.50;;;-0.89;93.44
62164;BME280;48149;51.132;7.178;2022-12-15T02:59:42;97741.31;;;-1.03;92.68
62164;BME280;48149;51.132;7.178;2022-12-15T03:02:10;97740.47;;;-0.56;93.69
62164;BME280;48149;51.132;7.178;2022-12-15T03:04:36;97734.25;;;-1.10;91.83
62164;BME280;48149;51.132;7.178;2022-12-15T03:07:05;97745.31;;;-0.77;91.92
62164;BME280;48149;51.132;7.178;2022-12-15T03:09:32;97748.88;;;-1.02;94.18
62164;BME280;48149;51.132;7.178;2022-12-15T03:11:58;97748.72;;;-1.33;97.37
62164;BME280;48149;51.132;7.178;2022-12-15T03:14:24;97749.38;;;-0.98;95.37
62164;BME280;48149;51.132;7.178;2022-12-15T03:16:50;97748.88;;;-0.94;94.09
62164;BME280;48149;51.132;7.178;2022-12-15T03:19:15;97759.94;;;-1.10;95.86
62164;BME280;48149;51.132;7.178;2022-12-15T03:21:40;97760.59;;;-0.99;93.60
62164;BME280;48149;51.132;7.178;2022-12-15T03:24:06;97752.88;;;-0.83;93.53
62164;BME280;48149;51.132;7.178;2022-12-15T03:26:32;97753.06;;;-1.09;96.41
62164;BME280;48149;51.132;7.178;2022-12-15T03:28:57;97756.25;;;-1.31;94.33
62164;BME280;48149;51.132;7.178;2022-12-15T03:31:23;97762.50;;;-0.93;93.99
62164;BME280;48149;51.132;7.178;2022-12-15T03:33:48;97765.84;;;-0.44;92.17
62164;BME280;48149;51.132;7.178;2022-12-15T03:36:13;97766.66;;;-0.68;93.01
62164;BME280;48149;51.132;7.178;2022-12-15T03:38:38;97761.81;;;-0.55;94.58
62164;BME280;48149;51.132;7.178;2022-12-15T03:41:04;97766.34;;;-0.57;94.04
62164;BME280;48149;51.132;7.178;2022-12-15T03:43:29;97766.19;;;-0.09;89.29
62164;BME280;48149;51.132;7.178;2022-12-15T03:45:54;97769.84;;;0.05;88.93
62164;BME280;48149;51.132;7.178;2022-12-15T03:48:19;97772.09;;;-0.55;90.83
62164;BME280;48149;51.132;7.178;2022-12-15T03:50:46;97766.16;;;-0.01;94.33
62164;BME280;48149;51.132;7.178;2022-12-15T03:53:11;97763.59;;;-0.09;90.58
62164;BME280;48149;51.132;7.178;2022-12-15T03:55:37;97764.19;;;-0.37;91.23
62164;BME280;48149;51.132;7.178;2022-12-15T03:58:02;97767.56;;;-0.29;92.77
62164;BME280;48149;51.132;7.178;2022-12-15T04:00:28;97781.00;;;-0.11;91.08
62164;BME280;48149;51.132;7.178;2022-12-15T04:02:53;97773.69;;;-0.38;91.68
62164;BME280;48149;51.132;7.178;2022-12-15T04:07:48;97776.19;;;-0.14;94.52
62164;BME280;48149;51.132;7.178;2022-12-15T04:10:14;97773.16;;;0.22;91.17
62164;BME280;48149;51.132;7.178;2022-12-15T04:12:39;97776.19;;;0.48;88.24
62164;BME280;48149;51.132;7.178;2022-12-15T04:15:05;97780.19;;;0.50;88.66
62164;BME280;48149;51.132;7.178;2022-12-15T04:17:31;97770.28;;;-0.30;94.31
62164;BME280;48149;51.132;7.178;2022-12-15T04:19:56;97780.50;;;-0.14;93.82
62164;BME280;48149;51.132;7.178;2022-12-15T04:22:43;97779.47;;;-0.44;93.22
62164;BME280;48149;51.132;7.178;2022-12-15T04:25:10;97766.31;;;0.37;92.32
62164;BME280;48149;51.132;7.178;2022-12-15T04:27:54;97778.31;;;1.13;84.77
62164;BME280;48149;51.132;7.178;2022-12-15T04:30:39;97773.81;;;0.92;85.01
62164;BME280;48149;51.132;7.178;2022-12-15T04:33:24;97783.03;;;-0.45;91.82
62164;BME280;48149;51.132;7.178;2022-12-15T04:36:10;97782.63;;;0.52;91.38
62164;BME280;48149;51.132;7.178;2022-12-15T04:38:55;97779.03;;;-0.01;94.02
62164;BME280;48149;51.132;7.178;2022-12-15T04:41:39;97784.09;;;1.15;86.98
62164;BME280;48149;51.132;7.178;2022-12-15T04:44:23;97790.28;;;0.29;90.96
62164;BME280;48149;51.132;7.178;2022-12-15T04:47:07;97783.06;;;1.24;85.13
62164;BME280;48149;51.132;7.178;2022-12-15T04:49:52;97779.31;;;0.66;87.34
62164;BME280;48149;51.132;7.178;2022-12-15T04:52:37;97776.00;;;0.80;87.19
62164;BME280;48149;51.132;7.178;2022-12-15T04:55:21;97784.78;;;0.40;90.96
62164;BME280;48149;51.132;7.178;2022-12-15T04:58:08;97785.47;;;-0.05;92.67
62164;BME280;48149;51.132;7.178;2022-12-15T05:00:53;97780.53;;;0.25;95.02
62164;BME280;48149;51.132;7.178;2022-12-15T05:03:37;97777.53;;;0.44;93.77
62164;BME280;48149;51.132;7.178;2022-12-15T05:06:21;97776.84;;;1.33;88.13
62164;BME280;48149;51.132;7.178;2022-12-15T05:09:05;97782.50;;;0.07;93.68
62164;BME280;48149;51.132;7.178;2022-12-15T05:11:49;97784.09;;;0.46;92.36
62164;BME280;48149;51.132;7.178;2022-12-15T05:14:33;97789.13;;;0.01;95.01
62164;BME280;48149;51.132;7.178;2022-12-15T05:17:18;97797.84;;;0.00;96.84
62164;BME280;48149;51.132;7.178;2022-12-15T05:20:04;97805.34;;;0.10;94.44
62164;BME280;48149;51.132;7.178;2022-12-15T05:22:51;97799.28;;;0.64;93.66
62164;BME280;48149;51.132;7.178;2022-12-15T05:25:35;97807.34;;;0.61;91.52
62164;BME280;48149;51.132;7.178;2022-12-15T05:28:19;97806.22;;;1.46;87.33
62164;BME280;48149;51.132;7.178;2022-12-15T05:31:04;97800.16;;;0.79;91.69
62164;BME280;48149;51.132;7.178;2022-12-15T05:33:48;97801.97;;;1.53;86.39
62164;BME280;48149;51.132;7.178;2022-12-15T05:36:14;97805.53;;;0.92;89.45
62164;BME280;48149;51.132;7.178;2022-12-15T05:38:39;97813.78;;;0.88;89.51
62164;BME280;48149;51.132;7.178;2022-12-15T05:41:04;97811.34;;;0.94;89.49
62164;BME280;48149;51.132;7.178;2022-12-15T05:43:29;97806.91;;;1.26;87.76
62164;BME280;48149;51.132;7.178;2022-12-15T05:45:55;97808.94;;;1.30;87.72
62164;BME280;48149;51.132;7.178;2022-12-15T05:48:20;97816.91;;;1.21;89.20
62164;BME280;48149;51.132;7.178;2022-12-15T05:50:46;97820.75;;;1.25;90.89
62164;BME280;48149;51.132;7.178;2022-12-15T05:53:13;97822.59;;;1.16;90.26
62164;BME280;48149;51.132;7.178;2022-12-15T05:55:38;97824.53;;;1.37;88.90
62164;BME280;48149;51.132;7.178;2022-12-15T05:58:06;97814.56;;;1.48;87.67
62164;BME280;48149;51.132;7.178;2022-12-15T06:00:32;97821.81;;;1.16;89.70
62164;BME280;48149;51.132;7.178;2022-12-15T06:02:57;97816.72;;;0.85;93.59
62164;BME280;48149;51.132;7.178;2022-12-15T06:05:23;97828.44;;;1.10;90.24
62164;BME280;48149;51.132;7.178;2022-12-15T06:07:48;97831.81;;;1.85;85.11
62164;BME280;48149;51.132;7.178;2022-12-15T06:10:13;97832.47;;;1.65;85.10
62164;BME280;48149;51.132;7.178;2022-12-15T06:12:39;97830.44;;;1.23;86.40
62164;BME280;48149;51.132;7.178;2022-12-15T06:15:05;97838.06;;;0.93;89.73
62164;BME280;48149;51.132;7.178;2022-12-15T06:17:30;97842.81;;;1.27;90.13
62164;BME280;48149;51.132;7.178;2022-12-15T06:19:56;97851.53;;;1.03;89.63
62164;BME280;48149;51.132;7.178;2022-12-15T06:22:21;97851.09;;;1.37;88.37
62164;BME280;48149;51.132;7.178;2022-12-15T06:24:46;97844.50;;;1.57;85.99
62164;BME280;48149;51.132;7.178;2022-12-15T06:27:11;97845.34;;;1.13;89.58
62164;BME280;48149;51.132;7.178;2022-12-15T06:29:37;97847.91;;;1.73;85.50
62164;BME280;48149;51.132;7.178;2022-12-15T06:32:02;97851.81;;;1.31;87.07
62164;BME280;48149;51.132;7.178;2022-12-15T06:34:28;97854.78;;;0.97;90.02
62164;BME280;48149;51.132;7.178;2022-12-15T06:36:53;97844.16;;;1.00;89.24
62164;BME280;48149;51.132;7.178;2022-12-15T06:39:19;97848.75;;;0.82;92.36
62164;BME280;48149;51.132;7.178;2022-12-15T06:41:45;97850.78;;;1.55;88.36
62164;BME280;48149;51.132;7.178;2022-12-15T06:44:12;97843.41;;;0.30;93.48
62164;BME280;48149;51.132;7.178;2022-12-15T06:46:37;97845.03;;;0.62;94.36
62164;BME280;48149;51.132;7.178;2022-12-15T06:49:03;97848.94;;;0.81;94.16
62164;BME280;48149;51.132;7.178;2022-12-15T06:51:28;97846.72;;;1.00;90.77
62164;BME280;48149;51.132;7.178;2022-12-15T06:53:54;97850.59;;;0.96;92.50
62164;BME280;48149;51.132;7.178;2022-12-15T06:56:24;97849.97;;;0.72;91.86
62164;BME280;48149;51.132;7.178;2022-12-15T06:58:50;97840.25;;;0.82;93.73
62164;BME280;48149;51.132;7.178;2022-12-15T07:01:16;97851.59;;;0.34;95.17
62164;BME280;48149;51.132;7.178;2022-12-15T07:03:42;97849.34;;;1.15;91.26
62164;BME280;48149;51.132;7.178;2022-12-15T07:06:09;97850.41;;;0.75;91.24
62164;BME280;48149;51.132;7.178;2022-12-15T07:08:36;97847.94;;;1.50;86.99
62164;BME280;48149;51.132;7.178;2022-12-15T07:11:03;97856.22;;;1.23;85.77
62164;BME280;48149;51.132;7.178;2022-12-15T07:13:28;97857.31;;;1.05;86.63
62164;BME280;48149;51.132;7.178;2022-12-15T07:15:53;97852.22;;;0.97;87.69
62164;BME280;48149;51.132;7.178;2022-12-15T07:18:21;97856.81;;;0.57;88.76
62164;BME280;48149;51.132;7.178;2022-12-15T07:20:46;97861.59;;;0.90;92.66
62164;BME280;48149;51.132;7.178;2022-12-15T07:23:11;97872.13;;;1.49;87.35
62164;BME280;48149;51.132;7.178;2022-12-15T07:25:37;97878.28;;;1.02;89.14
62164;BME280;48149;51.132;7.178;2022-12-15T07:28:03;97883.00;;;0.21;92.73
62164;BME280;48149;51.132;7.178;2022-12-15T07:30:28;97881.41;;;0.59;93.23
62164;BME280;48149;51.132;7.178;2022-12-15T07:32:53;97883.66;;;0.54;93.54
62164;BME280;48149;51.132;7.178;2022-12-15T07:35:19;97878.09;;;1.04;90.71
62164;BME280;48149;51.132;7.178;2022-12-15T07:37:44;97876.81;;;1.45;89.03
62164;BME280;48149;51.132;7.178;2022-12-15T07:40:09;97874.78;;;0.26;93.48
62164;BME280;48149;51.132;7.178;2022-12-15T07:42:36;97876.56;;;0.17;99.56
62164;BME280;48149;51.132;7.178;2022-12-15T07:45:03;97872.25;;;0.87;94.20
62164;BME280;48149;51.132;7.178;2022-12-15T07:47:29;97884.84;;;-0.12;95.35
62164;BME280;48149;51.132;7.178;2022-12-15T07:49:54;97880.72;;;0.65;95.10
62164;BME280;48149;51.132;7.178;2022-12-15T07:52:19;97884.03;;;0.82;92.22
62164;BME280;48149;51.132;7.178;2022-12-15T07:54:45;97893.59;;;0.34;95.38
62164;BME280;48149;51.132;7.178;2022-12-15T07:57:10;97875.25;;;1.22;92.79
62164;BME280;48149;51.132;7.178;2022-12-15T07:59:36;97877.94;;;1.05;90.40
62164;BME280;48149;51.132;7.178;2022-12-15T08:02:01;97879.19;;;1.32;89.56
62164;BME280;48149;51.132;7.178;2022-12-15T08:04:28;97888.72;;;0.78;90.43
62164;BME280;48149;51.132;7.178;2022-12-15T08:06:53;97879.84;;;0.03;95.51
62164;BME280;48149;51.132;7.178;2022-12-15T08:09:19;97884.19;;;0.03;95.79
62164;BME280;48149;51.132;7.178;2022-12-15T08:11:44;97885.75;;;0.04;97.11
62164;BME280;48149;51.132;7.178;2022-12-15T08:14:09;97891.09;;;-0.06;95.79
62164;BME280;48149;51.132;7.178;2022-12-15T08:16:34;97883.50;;;0.17;95.07
62164;BME280;48149;51.132;7.178;2022-12-15T08:19:00;97889.81;;;0.45;93.88
62164;BME280;48149;51.132;7.178;2022-12-15T08:21:26;97893.47;;;0.59;89.09
62164;BME280;48149;51.132;7.178;2022-12-15T08:23:52;97900.19;;;0.68;91.57
62164;BME280;48149;51.132;7.178;2022-12-15T08:26:17;97909.63;;;0.44;93.04
62164;BME280;48149;51.132;7.178;2022-12-15T08:28:43;97909.03;;;0.34;91.84
62164;BME280;48149;51.132;7.178;2022-12-15T08:31:12;97909.59;;;-0.03;93.82
62164;BME280;48149;51.132;7.178;2022-12-15T08:33:38;97915.91;;;0.42;92.33
62164;BME280;48149;51.132;7.178;2022-12-15T08:36:05;97912.59;;;0.17;95.23
62164;BME280;48149;51.132;7.178;2022-12-15T08:38:31;97921.47;;;0.15;94.55
62164;BME280;48149;51.132;7.178;2022-12-15T08:41:05;97924.91;;;0.38;91.22
62164;BME280;48149;51.132;7.178;2022-12-15T08:43:31;97934.16;;;0.24;93.18
62164;BME280;48149;51.132;7.178;2022-12-15T08:45:58;97931.50;;;0.87;93.23
62164;BME280;48149;51.132;7.178;2022-12-15T08:48:26;97934.31;;;1.31;86.67
62164;BME280;48149;51.132;7.178;2022-12-15T08:50:53;97942.19;;;1.30;87.39
62164;BME280;48149;51.132;7.178;2022-12-15T08:53:19;97927.13;;;1.64;87.44
62164;BME280;48149;51.132;7.178;2022-12-15T08:55:44;97941.38;;;1.60;86.26
62164;BME280;48149;51.132;7.178;2022-12-15T08:58:15;97952.91;;;1.19;88.80
62164;BME280;48149;51.132;7.178;2022-12-15T09:00:41;97943.09;;;1.45;85.51
62164;BME280;48149;51.132;7.178;2022-12-15T09:03:07;97950.69;;;1.16;87.23
62164;BME280;48149;51.132;7.178;2022-12-15T09:05:37;97938.56;;;1.47;86.35
62164;BME280;48149;51.132;7.178;2022-12-15T09:08:02;97945.94;;;0.96;89.45
62164;BME280;48149;51.132;7.178;2022-12-15T09:10:29;97947.66;;;1.35;92.83
62164;BME280;48149;51.132;7.178;2022-12-15T09:12:54;97937.28;;;1.66;90.91
62164;BME280;48149;51.132;7.178;2022-12-15T09:15:19;97950.50;;;2.66;83.33
62164;BME280;48149;51.132;7.178;2022-12-15T09:17:45;97957.25;;;1.86;84.58
62164;BME280;48149;51.132;7.178;2022-12-15T09:20:11;97968.47;;;1.79;84.66
62164;BME280;48149;51.132;7.178;2022-12-15T09:22:36;97975.66;;;0.84;88.32
62164;BME280;48149;51.132;7.178;2022-12-15T09:25:02;97960.31;;;1.67;87.63
62164;BME280;48149;51.132;7.178;2022-12-15T09:27:27;97961.81;;;1.08;87.47
62164;BME280;48149;51.132;7.178;2022-12-15T09:29:56;97969.97;;;1.73;88.43
62164;BME280;48149;51.132;7.178;2022-12-15T09:32:23;97982.75;;;2.85;87.83
62164;BME280;48149;51.132;7.178;2022-12-15T09:34:51;97978.31;;;2.79;81.13
62164;BME280;48149;51.132;7.178;2022-12-15T09:37:17;97972.78;;;2.38;82.41
62164;BME280;48149;51.132;7.178;2022-12-15T09:39:43;97982.13;;;2.83;81.86
62164;BME280;48149;51.132;7.178;2022-12-15T09:42:21;97993.31;;;4.25;84.72
62164;BME280;48149;51.132;7.178;2022-12-15T09:44:47;97994.34;;;4.93;70.83
62164;BME280;48149;51.132;7.178;2022-12-15T09:47:27;97990.75;;;5.55;73.58
62164;BME280;48149;51.132;7.178;2022-12-15T09:54:50;97985.66;;;7.62;61.44
62164;BME280;48149;51.132;7.178;2022-12-15T10:00:05;97991.72;;;7.56;52.75
62164;BME280;48149;51.132;7.178;2022-12-15T10:05:29;97991.59;;;8.74;48.55
62164;BME280;48149;51.132;7.178;2022-12-15T10:07:48;97991.47;;;9.05;46.90
62164;BME280;48149;51.132;7.178;2022-12-15T10:10:16;97982.03;;;10.70;45.95
62164;BME280;48149;51.132;7.178;2022-12-15T10:12:45;97989.97;;;8.55;44.26
62164;BME280;48149;51.132;7.178;2022-12-15T10:17:51;97984.66;;;10.35;43.81
62164;BME280;48149;51.132;7.178;2022-12-15T10:20:22;97978.63;;;10.23;41.37
62164;BME280;48149;51.132;7.178;2022-12-15T10:22:50;97980.44;;;10.69;40.91
62164;BME280;48149;51.132;7.178;2022-12-15T10:25:20;97979.06;;;9.49;42.55
62164;BME280;48149;51.132;7.178;2022-12-15T10:30:29;97985.09;;;14.05;36.69
62164;BME280;48149;51.132;7.178;2022-12-15T10:35:22;97980.56;;;10.62;39.60
62164;BME280;48149;51.132;7.178;2022-12-15T10:37:49;97993.00;;;13.30;37.82
62164;BME280;48149;51.132;7.178;2022-12-15T10:40:19;97993.59;;;14.44;34.41
62164;BME280;48149;51.132;7.178;2022-12-15T10:42:48;97993.53;;;13.80;35.46
62164;BME280;48149;51.132;7.178;2022-12-15T10:48:17;97987.94;;;12.30;36.70
62164;BME280;48149;51.132;7.178;2022-12-15T10:50:43;97983.06;;;13.85;36.62
62164;BME280;48149;51.132;7.178;2022-12-15T10:55:44;97991.41;;;13.77;36.34
62164;BME280;48149;51.132;7.178;2022-12-15T10:58:19;97990.91;;;11.89;38.44
62164;BME280;48149;51.132;7.178;2022-12-15T11:01:05;97978.13;;;12.59;36.86
62164;BME280;48149;51.132;7.178;2022-12-15T11:03:34;97987.59;;;13.63;35.11
62164;BME280;48149;51.132;7.178;2022-12-15T11:06:01;97971.75;;;12.55;35.87
62164;BME280;48149;51.132;7.178;2022-12-15T11:08:33;97973.06;;;13.82;35.33
62164;BME280;48149;51.132;7.178;2022-12-15T11:10:59;97974.41;;;14.17;35.43
62164;BME280;48149;51.132;7.178;2022-12-15T11:16:27;97978.56;;;13.54;35.99
62164;BME280;48149;51.132;7.178;2022-12-15T11:19:01;97969.13;;;14.17;36.27
62164;BME280;48149;51.132;7.178;2022-12-15T11:28:53;97965.97;;;16.51;31.69
62164;BME280;48149;51.132;7.178;2022-12-15T11:31:29;97966.72;;;14.10;33.67
62164;BME280;48149;51.132;7.178;2022-12-15T11:33:57;97973.50;;;13.48;35.36
62164;BME280;48149;51.132;7.178;2022-12-15T11:39:04;97960.03;;;13.98;35.38
62164;BME280;48149;51.132;7.178;2022-12-15T11:41:40;97958.72;;;12.98;34.89
62164;BME280;48149;51.132;7.178;2022-12-15T11:44:14;97954.75;;;14.66;34.86
62164;BME280;48149;51.132;7.178;2022-12-15T11:46:50;97961.00;;;16.20;32.58
62164;BME280;48149;51.132;7.178;2022-12-15T12:05:02;97955.69;;;8.33;49.05
62164;BME280;48149;51.132;7.178;2022-12-15T12:07:34;97951.06;;;7.79;53.75
62164;BME280;48149;51.132;7.178;2022-12-15T12:18:22;97953.28;;;7.07;54.65
62164;BME280;48149;51.132;7.178;2022-12-15T12:20:51;97952.03;;;7.53;54.33
62164;BME280;48149;51.132;7.178;2022-12-15T12:23:21;97953.44;;;7.18;55.34
62164;BME280;48149;51.132;7.178;2022-12-15T12:26:22;97951.34;;;6.89;56.08
62164;BME280;48149;51.132;7.178;2022-12-15T12:34:05;97940.00;;;6.70;58.96
62164;BME280;48149;51.132;7.178;2022-12-15T12:36:34;97936.88;;;7.06;58.29
62164;BME280;48149;51.132;7.178;2022-12-15T12:39:00;97937.69;;;6.36;62.30
62164;BME280;48149;51.132;7.178;2022-12-15T12:43:57;97928.41;;;6.66;65.07
62164;BME280;48149;51.132;7.178;2022-12-15T12:46:32;97916.25;;;7.05;60.26
62164;BME280;48149;51.132;7.178;2022-12-15T12:49:02;97918.94;;;6.21;63.13
62164;BME280;48149;51.132;7.178;2022-12-15T12:51:35;97915.94;;;6.11;66.63
62164;BME280;48149;51.132;7.178;2022-12-15T12:54:08;97914.81;;;6.71;65.88
62164;BME280;48149;51.132;7.178;2022-12-15T12:56:47;97912.81;;;6.60;66.09
62164;BME280;48149;51.132;7.178;2022-12-15T13:01:56;97903.09;;;6.35;65.14
62164;BME280;48149;51.132;7.178;2022-12-15T13:14:19;97887.03;;;6.58;66.03
62164;BME280;48149;51.132;7.178;2022-12-15T13:16:45;97876.16;;;5.84;67.35
62164;BME280;48149;51.132;7.178;2022-12-15T13:19:12;97885.16;;;6.14;68.48
62164;BME280;48149;51.132;7.178;2022-12-15T13:27:11;97875.75;;;6.13;67.01
62164;BME280;48149;51.132;7.178;2022-12-15T13:29:57;97878.84;;;6.61;65.15
62164;BME280;48149;51.132;7.178;2022-12-15T13:32:36;97871.66;;;6.43;68.96
62164;BME280;48149;51.132;7.178;2022-12-15T13:35:24;97868.88;;;6.52;66.70
62164;BME280;48149;51.132;7.178;2022-12-15T13:42:54;97843.72;;;10.79;51.41
62164;BME280;48149;51.132;7.178;2022-12-15T13:45:24;97846.84;;;12.80;44.30
62164;BME280;48149;51.132;7.178;2022-12-15T13:47:53;97840.63;;;14.51;39.75
62164;BME280;48149;51.132;7.178;2022-12-15T13:50:38;97842.66;;;15.11;38.72
62164;BME280;48149;51.132;7.178;2022-12-15T13:53:05;97838.94;;;16.38;35.26
62164;BME280;48149;51.132;7.178;2022-12-15T13:55:36;97829.56;;;15.71;35.28
62164;BME280;48149;51.132;7.178;2022-12-15T13:58:04;97831.38;;;15.25;35.25
62164;BME280;48149;51.132;7.178;2022-12-15T14:00:30;97832.91;;;16.17;35.18
62164;BME280;48149;51.132;7.178;2022-12-15T14:03:11;97825.06;;;15.82;34.96
62164;BME280;48149;51.132;7.178;2022-12-15T14:05:36;97817.78;;;14.76;36.01
62164;BME280;48149;51.132;7.178;2022-12-15T14:08:09;97810.56;;;15.59;35.78
62164;BME280;48149;51.132;7.178;2022-12-15T14:10:45;97819.28;;;15.65;34.95
62164;BME280;48149;51.132;7.178;2022-12-15T14:15:40;97815.03;;;15.48;35.71
62164;BME280;48149;51.132;7.178;2022-12-15T14:18:17;97817.16;;;15.57;35.15
62164;BME280;48149;51.132;7.178;2022-12-15T14:20:46;97808.94;;;15.43;34.90
62164;BME280;48149;51.132;7.178;2022-12-15T14:23:21;97806.56;;;15.36;34.90
62164;BME280;48149;51.132;7.178;2022-12-15T14:28:39;97798.38;;;15.88;34.91
62164;BME280;48149;51.132;7.178;2022-12-15T14:31:15;97794.22;;;15.62;34.72
62164;BME280;48149;51.132;7.178;2022-12-15T14:33:42;97788.38;;;15.45;35.15
62164;BME280;48149;51.132;7.178;2022-12-15T14:36:09;97780.97;;;15.07;35.56
62164;BME280;48149;51.132;7.178;2022-12-15T14:41:04;97777.25;;;14.20;36.69
62164;BME280;48149;51.132;7.178;2022-12-15T14:43:31;97772.72;;;13.64;37.63
62164;BME280;48149;51.132;7.178;2022-12-15T14:46:05;97773.31;;;11.94;39.14
62164;BME280;48149;51.132;7.178;2022-12-15T14:48:32;97771.88;;;10.06;43.93
62164;BME280;48149;51.132;7.178;2022-12-15T14:51:00;97761.63;;;9.12;47.40
62164;BME280;48149;51.132;7.178;2022-12-15T14:53:33;97761.31;;;8.79;49.33
62164;BME280;48149;51.132;7.178;2022-12-15T14:58:59;97772.69;;;8.00;54.46
62164;BME280;48149;51.132;7.178;2022-12-15T15:04:36;97769.28;;;10.46;48.87
62164;BME280;48149;51.132;7.178;2022-12-15T15:06:42;97780.88;;;10.79;46.81
62164;BME280;48149;51.132;7.178;2022-12-15T15:11:50;97776.09;;;9.84;47.77
62164;BME280;48149;51.132;7.178;2022-12-15T15:14:18;97784.19;;;9.83;47.60
62164;BME280;48149;51.132;7.178;2022-12-15T15:16:54;97786.31;;;9.62;48.57
62164;BME280;48149;51.132;7.178;2022-12-15T15:19:22;97795.69;;;9.17;48.75
62164;BME280;48149;51.132;7.178;2022-12-15T15:21:47;97797.09;;;9.43;49.23
62164;BME280;48149;51.132;7.178;2022-12-15T15:26:38;97806.31;;;9.45;49.20
62164;BME280;48149;51.132;7.178;2022-12-15T15:32:04;97813.34;;;8.92;49.45
62164;BME280;48149;51.132;7.178;2022-12-15T15:34:29;97822.91;;;8.98;50.92
62164;BME280;48149;51.132;7.178;2022-12-15T15:36:55;97829.28;;;8.84;51.69
62164;BME280;48149;51.132;7.178;2022-12-15T15:39:21;97831.72;;;8.49;52.87
62164;BME280;48149;51.132;7.178;2022-12-15T15:41:49;97839.50;;;8.37;53.67
62164;BME280;48149;51.132;7.178;2022-12-15T15:44:16;97842.63;;;8.28;54.62
62164;BME280;48149;51.132;7.178;2022-12-15T15:46:49;97852.06;;;8.22;54.75
62164;BME280;48149;51.132;7.178;2022-12-15T15:49:16;97844.75;;;7.88;54.68